Niagara Falls, Canada
Current Conditions -  °F | °C
As of 1:53 AM on Friday 28 Nov 2014 (Local Time) from KIAG Reporting Station
Light Snow Light Snow  
Wind Chill: 18°   Ceiling: 2800
Heat Index: 29°   Visibility: 6mi
Dew Point: 23°   Wind: 15mph
Humidity: 78%   Direction: 310°NW
Pressure: 30.14"   Gusts: NA
Location:  43.08°N, 79.08°W
Report Text: KIAG 280453Z AUTO 31013KT 6SM -SN FEW010 SCT022 OVC028 M02/M05 A3014 RMK AO2 SLP220 P0003 T10171050 400171022
Loading
Personal Weather Stations






























Interactive Weather Map New forecast layout! Learn more

10-Day Weather Forecast

Advertisements
Track Severe Weather on mobile